createdAt,value
2023-04-16T00:02:45.849Z,98475.67
2023-04-16T00:07:47.106Z,98473.10
2023-04-16T00:12:48.025Z,98470.66
2023-04-16T00:17:49.089Z,98471.85
2023-04-16T00:22:50.563Z,98476.64
2023-04-16T00:27:51.576Z,98478.10
2023-04-16T00:32:52.595Z,98483.45
2023-04-16T00:37:53.843Z,98487.41
2023-04-16T00:42:55.057Z,98493.42
2023-04-16T00:47:59.293Z,98493.35
2023-04-16T00:53:01.660Z,98495.25
2023-04-16T00:58:03.024Z,98496.13
2023-04-16T01:03:04.365Z,98501.34
2023-04-16T01:08:05.513Z,98504.52
2023-04-16T01:13:06.443Z,98508.89
2023-04-16T01:18:21.582Z,98465.02
2023-04-16T01:23:22.694Z,98513.13
2023-04-16T01:28:23.792Z,98514.08
2023-04-16T01:33:24.782Z,98515.36
2023-04-16T01:38:26.432Z,98518.80
2023-04-16T01:43:27.467Z,98523.59
2023-04-16T01:48:28.583Z,98523.56
2023-04-16T01:53:29.729Z,98528.60
2023-04-16T01:58:32.215Z,98532.27
2023-04-16T02:03:33.522Z,98530.19
2023-04-16T02:08:34.887Z,98531.70
2023-04-16T02:13:36.066Z,98530.44
2023-04-16T02:18:37.099Z,98529.31
2023-04-16T02:23:40.698Z,98526.75
2023-04-16T02:28:41.797Z,98522.98
2023-04-16T02:33:44.781Z,98530.36
2023-04-16T02:38:46.352Z,98537.31
2023-04-16T02:43:47.653Z,98539.99
2023-04-16T02:48:48.830Z,98539.54
2023-04-16T02:53:49.853Z,98542.53
2023-04-16T02:58:51.750Z,98545.95
2023-04-16T03:03:52.850Z,98551.52
2023-04-16T03:08:54.272Z,98555.35
2023-04-16T03:13:56.029Z,98553.04
2023-04-16T03:18:56.984Z,98559.55
2023-04-16T03:23:57.961Z,98573.29
2023-04-16T03:28:58.905Z,98576.73
2023-04-16T03:34:01.953Z,98583.55
2023-04-16T03:39:05.381Z,98586.35
2023-04-16T03:44:06.578Z,98593.27
2023-04-16T03:49:08.085Z,98600.06
2023-04-16T03:54:09.472Z,98607.27
2023-04-16T03:59:12.291Z,98614.27
2023-04-16T04:04:13.507Z,98626.48
2023-04-16T04:09:15.777Z,98638.07
2023-04-16T04:14:16.908Z,98645.13
2023-04-16T04:19:17.927Z,98640.75
2023-04-16T04:24:19.151Z,98647.80
2023-04-16T04:29:20.489Z,98650.16
2023-04-16T04:34:21.793Z,98654.65
2023-04-16T04:39:22.913Z,98665.32
2023-04-16T04:44:24.267Z,98668.72
2023-04-16T04:49:25.716Z,98675.35
2023-04-16T04:54:30.778Z,98681.05
2023-04-16T04:59:31.885Z,98681.55
2023-04-16T05:04:33.884Z,98688.81
2023-04-16T05:09:35.182Z,98698.51
2023-04-16T05:14:36.170Z,98700.15
2023-04-16T05:19:37.185Z,98698.18
2023-04-16T05:24:38.153Z,98700.23
2023-04-16T05:29:39.218Z,98699.19
2023-04-16T05:34:40.160Z,98702.31
2023-04-16T05:39:41.283Z,98708.30
2023-04-16T05:44:42.318Z,98715.04
2023-04-16T05:49:43.428Z,98714.35
2023-04-16T05:54:44.676Z,98715.14
2023-04-16T05:59:45.597Z,98720.04
2023-04-16T06:04:46.641Z,98727.48
2023-04-16T06:09:47.618Z,98725.30
2023-04-16T06:14:48.591Z,98733.32
2023-04-16T06:19:49.566Z,98736.34
2023-04-16T06:24:50.590Z,98742.05
2023-04-16T06:29:52.193Z,98756.74
2023-04-16T06:34:53.263Z,98758.12
2023-04-16T06:39:54.234Z,98756.42
2023-04-16T06:44:55.217Z,98758.83
2023-04-16T06:49:56.219Z,98764.29
2023-04-16T06:54:57.871Z,98758.65
2023-04-16T06:59:58.812Z,98761.04
2023-04-16T07:04:59.892Z,98767.55
2023-04-16T07:10:00.895Z,98770.95
2023-04-16T07:15:02.366Z,98766.32
2023-04-16T07:20:03.722Z,98766.11
2023-04-16T07:25:05.038Z,98767.65
2023-04-16T07:30:07.361Z,98772.21
2023-04-16T07:35:08.577Z,98771.85
2023-04-16T07:40:10.254Z,98767.21
2023-04-16T07:45:11.725Z,98778.48
2023-04-16T07:50:12.829Z,98783.86
2023-04-16T07:55:13.928Z,98767.46
2023-04-16T08:00:15.004Z,98797.38
2023-04-16T08:05:16.090Z,98806.95
2023-04-16T08:10:17.124Z,98810.39
2023-04-16T08:15:18.224Z,98815.02
2023-04-16T08:20:19.657Z,98814.08
2023-04-16T08:25:22.915Z,98818.50
2023-04-16T08:30:24.193Z,98822.14
2023-04-16T08:35:25.267Z,98826.23
2023-04-16T08:40:28.197Z,98825.60
2023-04-16T08:45:29.941Z,98830.22
2023-04-16T08:50:32.760Z,98823.55
2023-04-16T08:55:40.176Z,98820.02
2023-04-16T09:00:42.585Z,98821.98
2023-04-16T09:05:43.938Z,98830.89
2023-04-16T09:10:45.448Z,98835.68
2023-04-16T09:15:46.572Z,98835.21
2023-04-16T09:20:51.371Z,98834.02
2023-04-16T09:25:52.630Z,98835.27
2023-04-16T09:31:07.608Z,98838.22
2023-04-16T09:36:09.706Z,98844.24
2023-04-16T09:41:10.897Z,98845.89
2023-04-16T09:46:12.290Z,98847.61
2023-04-16T09:51:13.321Z,98842.50
2023-04-16T09:56:14.447Z,98848.19
2023-04-16T10:01:17.694Z,98842.77
2023-04-16T10:06:20.466Z,98838.22
2023-04-16T10:11:21.721Z,98844.96
2023-04-16T10:16:23.515Z,98846.90
2023-04-16T10:21:32.885Z,98851.67
2023-04-16T10:26:34.736Z,98854.49
2023-04-16T10:31:38.040Z,98856.87
2023-04-16T10:36:42.094Z,98857.99
2023-04-16T10:41:43.048Z,98862.48
2023-04-16T10:46:50.145Z,98865.39
2023-04-16T10:51:57.988Z,98861.30
2023-04-16T10:57:04.412Z,98863.88
2023-04-16T11:02:09.007Z,98868.48
2023-04-16T11:07:15.757Z,98867.41
2023-04-16T11:12:22.531Z,98869.08
2023-04-16T11:17:28.290Z,98871.32
2023-04-16T11:22:29.686Z,98865.23
2023-04-16T11:27:30.929Z,98864.33
2023-04-16T11:32:36.666Z,98865.45
2023-04-16T11:37:38.409Z,98864.16
2023-04-16T11:42:41.321Z,98865.43
2023-04-16T11:47:56.014Z,98864.48
2023-04-16T11:53:03.939Z,98864.89
2023-04-16T11:58:18.416Z,98860.46
2023-04-16T12:03:37.669Z,98861.41
2023-04-16T12:08:38.849Z,98862.85
2023-04-16T12:13:40.307Z,98864.52
2023-04-16T12:18:59.441Z,98867.51
2023-04-16T12:24:00.427Z,98867.39
2023-04-16T12:29:33.957Z,98865.64
2023-04-16T12:34:50.420Z,98862.64
2023-04-16T12:39:51.531Z,98865.27
2023-04-16T12:44:52.514Z,98863.56
2023-04-16T12:49:54.799Z,98865.11
2023-04-16T12:54:55.918Z,98863.17
2023-04-16T12:59:57.963Z,98857.75
2023-04-16T13:04:59.265Z,98855.06
2023-04-16T13:10:00.397Z,98851.73
2023-04-16T13:15:01.446Z,98848.57
2023-04-16T13:20:02.667Z,98844.14
2023-04-16T13:25:04.821Z,98849.36
2023-04-16T13:30:06.976Z,98849.36
2023-04-16T13:35:09.998Z,98845.23
2023-04-16T13:40:11.214Z,98842.71
2023-04-16T13:45:12.399Z,98841.85
2023-04-16T13:50:13.429Z,98823.08
2023-04-16T13:55:17.317Z,98841.05
2023-04-16T14:00:18.901Z,98843.21
2023-04-16T14:05:19.956Z,98826.77
2023-04-16T14:10:20.950Z,98843.41
2023-04-16T14:15:21.895Z,98843.00
2023-04-16T14:20:22.915Z,98847.32
2023-04-16T14:25:24.191Z,98842.94
2023-04-16T14:30:25.498Z,98850.14
2023-04-16T14:35:26.561Z,98842.98
2023-04-16T14:40:27.722Z,98818.25
2023-04-16T14:45:30.222Z,98837.17
2023-04-16T14:50:37.148Z,98838.20
2023-04-16T14:55:38.467Z,98836.88
2023-04-16T15:00:39.479Z,98839.86
2023-04-16T15:05:40.802Z,98840.30
2023-04-16T15:10:42.662Z,98838.69
2023-04-16T15:15:43.734Z,98839.80
2023-04-16T15:20:44.814Z,98840.35
2023-04-16T15:25:45.752Z,98842.64
2023-04-16T15:30:47.116Z,98848.20
2023-04-16T15:35:50.662Z,98849.50
2023-04-16T15:40:51.625Z,98853.20
2023-04-16T15:45:52.656Z,98852.83
2023-04-16T15:50:54.196Z,98855.42
2023-04-16T15:55:55.209Z,98854.17
2023-04-16T16:00:56.461Z,98840.95
2023-04-16T16:05:59.353Z,98856.94
2023-04-16T16:11:01.332Z,98857.65
2023-04-16T16:16:03.174Z,98862.13
2023-04-16T16:21:04.300Z,98864.23
2023-04-16T16:26:05.666Z,98845.14
2023-04-16T16:31:06.736Z,98868.70
2023-04-16T16:36:11.129Z,98866.71
2023-04-16T16:41:12.779Z,98869.55
2023-04-16T16:46:13.760Z,98868.79
2023-04-16T16:51:18.119Z,98868.70
2023-04-16T16:56:19.083Z,98868.38
2023-04-16T17:01:20.130Z,98876.09
2023-04-16T17:06:22.421Z,98880.34
2023-04-16T17:11:26.251Z,98888.07
2023-04-16T17:16:27.368Z,98889.58
2023-04-16T17:21:32.086Z,98897.23
2023-04-16T17:26:33.068Z,98903.30
2023-04-16T17:31:35.167Z,98910.48
2023-04-16T17:36:36.655Z,98914.02
2023-04-16T17:41:37.650Z,98913.19
2023-04-16T17:46:38.690Z,98919.04
2023-04-16T17:51:40.356Z,98918.51
2023-04-16T17:56:41.436Z,98930.61
2023-04-16T18:01:43.716Z,98933.93
2023-04-16T18:06:44.901Z,98943.04
2023-04-16T18:11:45.927Z,98946.80
2023-04-16T18:16:48.229Z,98950.73
2023-04-16T18:21:49.198Z,98958.95
2023-04-16T18:26:50.249Z,98962.70
2023-04-16T18:31:51.458Z,98967.64
2023-04-16T18:36:52.477Z,98969.65
2023-04-16T18:41:53.464Z,98975.78
2023-04-16T18:46:54.664Z,98980.55
2023-04-16T18:51:55.857Z,98985.64
2023-04-16T18:56:59.067Z,98985.09
2023-04-16T19:02:01.496Z,98986.41
2023-04-16T19:07:02.924Z,98989.63
2023-04-16T19:12:04.011Z,98993.71
2023-04-16T19:17:05.063Z,98991.20
2023-04-16T19:22:06.138Z,98992.23
2023-04-16T19:27:07.126Z,98992.73
2023-04-16T19:32:08.249Z,98992.19
2023-04-16T19:37:09.310Z,98989.92
2023-04-16T19:42:10.285Z,98992.31
2023-04-16T19:47:11.266Z,98986.68
2023-04-16T19:52:12.352Z,98991.14
2023-04-16T19:57:13.470Z,98991.17
2023-04-16T20:02:14.575Z,98992.52
2023-04-16T20:07:15.612Z,98993.39
2023-04-16T20:12:17.802Z,98995.95
2023-04-16T20:17:19.126Z,98993.92
2023-04-16T20:22:20.382Z,98991.38
2023-04-16T20:27:21.401Z,98994.64
2023-04-16T20:32:22.484Z,98997.36
2023-04-16T20:37:23.587Z,98998.67
2023-04-16T20:42:25.471Z,98999.27
2023-04-16T20:47:26.591Z,98996.73
2023-04-16T20:52:27.559Z,98995.94
2023-04-16T20:57:29.102Z,98993.98
2023-04-16T21:02:30.658Z,98998.14
2023-04-16T21:07:32.416Z,98993.91
2023-04-16T21:12:35.204Z,98993.22
2023-04-16T21:17:39.382Z,98987.17
2023-04-16T21:22:40.588Z,98991.88
2023-04-16T21:27:41.553Z,98994.55
2023-04-16T21:32:43.046Z,98995.02
2023-04-16T21:37:44.019Z,98993.80
2023-04-16T21:42:45.947Z,98989.33
2023-04-16T21:47:47.767Z,98989.12
2023-04-16T21:52:54.090Z,98994.08
2023-04-16T21:57:55.085Z,98993.41
2023-04-16T22:02:59.334Z,98991.20
2023-04-16T22:08:02.609Z,98994.65
2023-04-16T22:13:11.928Z,98968.70
2023-04-16T22:18:13.423Z,98991.94
2023-04-16T22:23:14.348Z,99000.27
2023-04-16T22:28:15.492Z,98999.15
2023-04-16T22:33:16.546Z,99000.25
2023-04-16T22:38:17.549Z,99000.88
2023-04-16T22:43:18.505Z,99006.77
2023-04-16T22:48:19.607Z,99003.92
2023-04-16T22:53:21.147Z,99001.35
2023-04-16T22:58:22.293Z,98999.08
2023-04-16T23:03:23.356Z,98999.22
2023-04-16T23:08:24.621Z,98998.61
2023-04-16T23:13:28.292Z,98993.09
2023-04-16T23:18:29.300Z,98993.01
2023-04-16T23:23:30.494Z,98990.89
2023-04-16T23:28:31.571Z,98990.44
2023-04-16T23:33:33.855Z,98987.66
2023-04-16T23:38:34.826Z,98988.02
2023-04-16T23:43:40.014Z,98983.16
2023-04-16T23:48:43.192Z,98981.66
2023-04-16T23:53:45.376Z,98980.23
2023-04-16T23:58:46.379Z,98973.68
